createdAt,value
2018-06-29T00:00:36.690Z,20.42
2018-06-29T00:03:06.797Z,20.40
2018-06-29T00:05:37.030Z,20.39
2018-06-29T00:08:06.944Z,20.40
2018-06-29T00:10:36.841Z,20.40
2018-06-29T00:13:07.009Z,20.38
2018-06-29T00:15:36.963Z,20.38
2018-06-29T00:18:07.451Z,20.36
2018-06-29T00:20:37.337Z,20.37
2018-06-29T00:23:07.283Z,20.37
2018-06-29T00:25:37.257Z,20.37
2018-06-29T00:28:07.602Z,20.36
2018-06-29T00:30:38.005Z,20.38
2018-06-29T00:33:08.065Z,20.37
2018-06-29T00:35:38.004Z,20.36
2018-06-29T00:38:08.259Z,20.36
2018-06-29T00:40:38.334Z,20.35
2018-06-29T00:43:08.262Z,20.36
2018-06-29T00:45:38.058Z,20.36
2018-06-29T00:48:07.979Z,20.38
2018-06-29T00:50:38.156Z,20.39
2018-06-29T00:53:08.070Z,20.39
2018-06-29T00:55:38.680Z,20.41
2018-06-29T00:58:08.756Z,20.43
2018-06-29T01:00:38.858Z,20.44
2018-06-29T01:03:09.422Z,20.44
2018-06-29T01:05:39.326Z,20.46
2018-06-29T01:08:09.217Z,20.46
2018-06-29T01:10:39.319Z,20.47
2018-06-29T01:13:09.338Z,20.49
2018-06-29T01:15:39.248Z,20.49
2018-06-29T01:18:09.378Z,20.49
2018-06-29T01:20:39.911Z,20.51
2018-06-29T01:23:10.083Z,20.52
2018-06-29T01:25:40.038Z,20.53
2018-06-29T01:28:10.531Z,20.54
2018-06-29T01:30:40.824Z,20.54
2018-06-29T01:33:10.721Z,20.55
2018-06-29T01:35:40.509Z,20.56
2018-06-29T01:38:10.439Z,20.55
2018-06-29T01:40:40.427Z,20.54
2018-06-29T01:43:10.442Z,20.53
2018-06-29T01:45:40.430Z,20.52
2018-06-29T01:48:10.713Z,20.52
2018-06-29T01:50:41.080Z,20.51
2018-06-29T01:53:11.035Z,20.50
2018-06-29T01:55:41.728Z,20.50
2018-06-29T01:58:11.574Z,20.49
2018-06-29T02:00:41.955Z,20.48
2018-06-29T02:03:11.903Z,20.45
2018-06-29T02:05:41.771Z,20.44
2018-06-29T02:08:11.789Z,20.43
2018-06-29T02:10:41.722Z,20.41
2018-06-29T02:13:11.865Z,20.41
2018-06-29T02:15:41.969Z,20.41
2018-06-29T02:18:12.436Z,20.43
2018-06-29T02:20:42.517Z,20.44
2018-06-29T02:23:12.610Z,20.44
2018-06-29T02:25:42.614Z,20.45
2018-06-29T02:28:12.452Z,20.47
2018-06-29T02:30:42.312Z,20.49
2018-06-29T02:33:12.424Z,20.50
2018-06-29T02:35:42.255Z,20.50
2018-06-29T02:38:12.015Z,20.51
2018-06-29T02:40:42.143Z,20.50
2018-06-29T02:43:12.920Z,20.49
2018-06-29T02:45:43.034Z,20.51
2018-06-29T02:48:12.978Z,20.50
2018-06-29T02:50:42.999Z,20.49
2018-06-29T02:53:13.083Z,20.51
2018-06-29T02:55:43.064Z,20.51
2018-06-29T02:58:14.184Z,20.53
2018-06-29T03:00:44.270Z,20.53
2018-06-29T03:03:14.352Z,20.55
2018-06-29T03:05:44.152Z,20.56
2018-06-29T03:08:14.653Z,20.59
2018-06-29T03:10:44.471Z,20.60
2018-06-29T03:13:14.359Z,20.61
2018-06-29T03:15:44.296Z,20.61
2018-06-29T03:18:14.770Z,20.61
2018-06-29T03:20:45.517Z,20.62
2018-06-29T03:23:15.684Z,20.63
2018-06-29T03:25:45.508Z,20.63
2018-06-29T03:28:15.500Z,20.66
2018-06-29T03:30:46.761Z,20.66
2018-06-29T03:33:17.203Z,20.68
2018-06-29T03:35:47.334Z,20.69
2018-06-29T03:38:17.354Z,20.70
2018-06-29T03:40:47.616Z,20.71
2018-06-29T03:43:17.439Z,20.71
2018-06-29T03:45:47.274Z,20.73
2018-06-29T03:48:17.092Z,20.74
2018-06-29T03:50:47.218Z,20.74
2018-06-29T03:53:17.868Z,20.74
2018-06-29T03:55:47.861Z,20.73
2018-06-29T03:58:17.761Z,20.73
2018-06-29T04:00:47.582Z,20.72
2018-06-29T04:03:17.475Z,20.71
2018-06-29T04:05:47.401Z,20.74
2018-06-29T04:08:17.290Z,20.74
2018-06-29T04:10:47.616Z,20.73
2018-06-29T04:13:17.318Z,20.75
2018-06-29T04:15:47.252Z,20.78
2018-06-29T04:18:17.302Z,20.80
2018-06-29T04:20:47.216Z,20.81
2018-06-29T04:23:17.359Z,20.83
2018-06-29T04:25:47.465Z,20.85
2018-06-29T04:28:17.397Z,20.84
2018-06-29T04:30:47.276Z,20.87
2018-06-29T04:33:17.688Z,20.89
2018-06-29T04:35:47.745Z,20.92
2018-06-29T04:38:17.701Z,20.96
2018-06-29T04:40:47.670Z,20.98
2018-06-29T04:43:18.435Z,21.02
2018-06-29T04:45:49.119Z,21.04
2018-06-29T04:48:22.084Z,21.05
2018-06-29T04:50:52.468Z,21.07
2018-06-29T04:53:22.447Z,21.10
2018-06-29T04:55:58.603Z,21.13
2018-06-29T04:58:29.156Z,21.16
2018-06-29T05:00:59.234Z,21.17
2018-06-29T05:03:29.362Z,21.18
2018-06-29T05:05:59.075Z,21.20
2018-06-29T05:08:28.847Z,21.22
2018-06-29T05:10:59.004Z,21.22
2018-06-29T05:13:29.337Z,21.22
2018-06-29T05:15:59.462Z,21.22
2018-06-29T05:18:29.695Z,21.21
2018-06-29T05:20:59.751Z,21.20
2018-06-29T05:23:29.878Z,21.21
2018-06-29T05:26:00.342Z,21.21
2018-06-29T05:28:30.221Z,21.22
2018-06-29T05:31:00.261Z,21.22
2018-06-29T05:33:30.099Z,21.23
2018-06-29T05:36:00.288Z,21.23
2018-06-29T05:38:30.035Z,21.26
2018-06-29T05:40:59.848Z,21.26
2018-06-29T05:43:30.328Z,21.27
2018-06-29T05:46:01.017Z,21.28
2018-06-29T05:48:30.740Z,21.26
2018-06-29T05:51:00.635Z,21.27
2018-06-29T05:53:30.737Z,21.28
2018-06-29T05:56:01.085Z,21.29
2018-06-29T05:58:31.186Z,21.28
2018-06-29T06:01:01.542Z,21.31
2018-06-29T06:03:31.854Z,21.33
2018-06-29T06:06:01.547Z,21.35
2018-06-29T06:08:31.274Z,21.37
2018-06-29T06:11:00.974Z,21.40
2018-06-29T06:13:30.815Z,21.43
2018-06-29T06:16:01.527Z,21.47
2018-06-29T06:18:32.165Z,21.53
2018-06-29T06:21:01.904Z,21.61
2018-06-29T06:23:31.896Z,21.70
2018-06-29T06:26:01.831Z,21.80
2018-06-29T06:28:32.177Z,21.88
2018-06-29T06:31:02.058Z,21.96
2018-06-29T06:36:07.598Z,22.10
2018-06-29T06:38:37.268Z,22.15
2018-06-29T06:41:09.888Z,22.23
2018-06-29T06:44:47.993Z,22.32
2018-06-29T06:47:17.765Z,22.43
2018-06-29T06:49:47.567Z,22.51
2018-06-29T06:52:17.494Z,22.58
2018-06-29T06:54:47.565Z,22.63
2018-06-29T06:57:17.383Z,22.68
2018-06-29T06:59:47.207Z,22.73
2018-06-29T07:02:17.012Z,22.76
2018-06-29T07:04:46.896Z,22.77
2018-06-29T07:07:16.627Z,22.78
2018-06-29T07:09:46.555Z,22.81
2018-06-29T07:12:17.246Z,22.83
2018-06-29T07:14:47.109Z,22.84
2018-06-29T07:17:16.849Z,22.90
2018-06-29T07:19:47.068Z,22.94
2018-06-29T07:22:16.784Z,23.00
2018-06-29T07:24:46.962Z,23.06
2018-06-29T07:27:16.700Z,23.09
2018-06-29T07:29:46.524Z,23.10
2018-06-29T07:32:16.817Z,23.15
2018-06-29T07:34:46.770Z,23.19
2018-06-29T07:37:17.154Z,23.28
2018-06-29T07:39:47.377Z,23.37
2018-06-29T07:42:18.007Z,23.43
2018-06-29T07:44:47.853Z,23.50
2018-06-29T07:47:18.082Z,23.55
2018-06-29T07:49:48.034Z,23.61
2018-06-29T07:52:17.920Z,23.67
2018-06-29T07:54:47.916Z,23.71
2018-06-29T07:57:24.921Z,23.73
2018-06-29T07:59:54.688Z,23.76
2018-06-29T08:02:24.652Z,23.79
2018-06-29T08:04:59.889Z,23.77
2018-06-29T08:07:29.759Z,23.77
2018-06-29T08:09:59.558Z,23.74
2018-06-29T08:12:29.499Z,23.73
2018-06-29T08:14:59.286Z,23.74
2018-06-29T08:17:29.388Z,23.75
2018-06-29T08:19:59.738Z,23.77
2018-06-29T08:22:29.645Z,23.81
2018-06-29T08:25:16.095Z,23.85
2018-06-29T08:27:46.089Z,23.89
2018-06-29T08:30:16.288Z,23.89
2018-06-29T08:32:46.972Z,23.92
2018-06-29T08:35:16.692Z,23.92
2018-06-29T08:37:46.780Z,23.93
2018-06-29T08:40:16.702Z,23.92
2018-06-29T08:42:46.598Z,23.89
2018-06-29T08:45:17.188Z,23.90
2018-06-29T08:47:47.035Z,23.88
2018-06-29T08:50:16.989Z,23.88
2018-06-29T08:52:46.974Z,23.89
2018-06-29T08:55:17.260Z,23.84
2018-06-29T08:57:47.357Z,23.79
2018-06-29T09:00:17.235Z,23.80
2018-06-29T09:02:47.592Z,23.78
2018-06-29T09:05:17.921Z,23.76
2018-06-29T09:07:48.019Z,23.75
2018-06-29T09:10:18.036Z,23.75
2018-06-29T09:12:48.847Z,23.75
2018-06-29T09:15:18.783Z,23.73
2018-06-29T09:17:48.818Z,23.70
2018-06-29T09:20:18.723Z,23.65
2018-06-29T09:22:49.161Z,23.64
2018-06-29T09:25:19.074Z,23.59
2018-06-29T09:27:49.207Z,23.55
2018-06-29T09:30:19.414Z,23.50
2018-06-29T09:32:49.404Z,23.46
2018-06-29T09:35:19.096Z,23.44
2018-06-29T09:37:49.538Z,23.39
2018-06-29T09:40:19.443Z,23.36
2018-06-29T09:42:49.256Z,23.35
2018-06-29T09:45:19.117Z,23.35
2018-06-29T09:47:49.328Z,23.35
2018-06-29T09:50:19.319Z,23.35
2018-06-29T09:52:49.233Z,23.37
2018-06-29T09:55:19.195Z,23.39
2018-06-29T09:57:49.215Z,23.40
2018-06-29T10:00:28.140Z,23.40
2018-06-29T10:02:58.696Z,23.41
2018-06-29T10:05:29.310Z,23.42
2018-06-29T10:07:59.445Z,23.45
2018-06-29T10:10:29.425Z,23.49
2018-06-29T10:12:59.528Z,23.55
2018-06-29T10:15:29.334Z,23.62
2018-06-29T10:17:59.391Z,23.68
2018-06-29T10:20:31.420Z,23.77
2018-06-29T10:23:02.204Z,23.83
2018-06-29T10:25:32.255Z,23.87
2018-06-29T10:28:02.145Z,23.89
2018-06-29T10:30:32.427Z,23.97
2018-06-29T10:33:02.348Z,24.05
2018-06-29T10:35:32.196Z,24.11
2018-06-29T10:38:02.006Z,24.15
2018-06-29T10:40:31.864Z,24.17
2018-06-29T10:43:01.752Z,24.20
2018-06-29T10:45:31.593Z,24.20
2018-06-29T10:48:02.275Z,24.21
2018-06-29T10:50:38.438Z,24.19
2018-06-29T10:53:08.500Z,24.15
2018-06-29T10:55:38.435Z,24.11
2018-06-29T10:58:08.291Z,24.08
2018-06-29T11:00:38.275Z,24.06
2018-06-29T11:03:08.511Z,24.02
2018-06-29T11:05:38.489Z,24.03
2018-06-29T11:08:08.299Z,24.05
2018-06-29T11:10:38.329Z,24.07
2018-06-29T11:13:08.332Z,24.11
2018-06-29T11:15:38.727Z,24.17
2018-06-29T11:18:08.574Z,24.27
2018-06-29T11:20:38.495Z,24.38
2018-06-29T11:23:14.844Z,24.53
2018-06-29T11:25:44.652Z,24.67
2018-06-29T11:28:14.612Z,24.78
2018-06-29T11:30:44.257Z,24.91
2018-06-29T11:33:14.663Z,25.05
2018-06-29T11:35:44.705Z,25.15
2018-06-29T11:38:14.449Z,25.22
2018-06-29T11:40:44.191Z,25.30
2018-06-29T11:43:14.499Z,25.37
2018-06-29T11:45:44.479Z,25.46
2018-06-29T11:48:14.623Z,25.55
2018-06-29T11:50:44.716Z,25.61
2018-06-29T11:53:14.572Z,25.67
2018-06-29T11:55:44.681Z,25.73
2018-06-29T11:58:14.893Z,25.76
2018-06-29T12:00:45.381Z,25.82
2018-06-29T12:03:15.427Z,25.84
2018-06-29T12:05:45.274Z,25.87
2018-06-29T12:08:16.060Z,25.90
2018-06-29T12:10:46.134Z,25.93
2018-06-29T12:13:16.255Z,25.94
2018-06-29T12:15:46.114Z,25.94
2018-06-29T12:18:16.001Z,25.96
2018-06-29T12:20:45.853Z,25.99
2018-06-29T12:23:16.615Z,26.02
2018-06-29T12:25:46.991Z,26.08
2018-06-29T12:28:17.301Z,26.14
2018-06-29T12:30:47.491Z,26.18
2018-06-29T12:33:17.621Z,26.18
2018-06-29T12:35:47.433Z,26.21
2018-06-29T12:38:17.845Z,26.21
2018-06-29T12:40:47.774Z,26.20
2018-06-29T12:43:17.735Z,26.19
2018-06-29T12:45:47.507Z,26.18
2018-06-29T12:48:17.633Z,26.16
2018-06-29T12:50:47.488Z,26.14
2018-06-29T12:53:17.484Z,26.10
2018-06-29T12:55:47.698Z,26.05
2018-06-29T12:58:17.728Z,26.00
2018-06-29T13:00:48.732Z,25.97
2018-06-29T13:03:18.614Z,25.91
2018-06-29T13:05:48.350Z,25.87
2018-06-29T13:08:18.424Z,25.84
2018-06-29T13:10:48.598Z,25.79
2018-06-29T13:13:18.889Z,25.76
2018-06-29T13:15:48.788Z,25.71
2018-06-29T13:18:18.603Z,25.66
2018-06-29T13:20:50.618Z,25.59
2018-06-29T13:23:20.781Z,25.54
2018-06-29T13:25:50.745Z,25.49
2018-06-29T13:28:20.984Z,25.45
2018-06-29T13:30:50.973Z,25.44
2018-06-29T13:33:21.978Z,25.42
2018-06-29T13:35:51.700Z,25.43
2018-06-29T13:38:22.470Z,25.42
2018-06-29T13:40:52.791Z,25.43
2018-06-29T13:43:22.503Z,25.43
2018-06-29T13:45:52.715Z,25.43
2018-06-29T13:48:22.873Z,25.42
2018-06-29T13:50:53.938Z,25.40
2018-06-29T13:53:23.937Z,25.42
2018-06-29T13:55:53.933Z,25.41
2018-06-29T13:58:23.995Z,25.42
2018-06-29T14:00:53.795Z,25.41
2018-06-29T14:03:23.617Z,25.42
2018-06-29T14:05:53.347Z,25.40
2018-06-29T14:08:23.430Z,25.39
2018-06-29T14:10:53.264Z,25.36
2018-06-29T14:13:23.315Z,25.35
2018-06-29T14:15:53.211Z,25.34
2018-06-29T14:18:23.442Z,25.33
2018-06-29T14:20:53.427Z,25.31
2018-06-29T14:23:23.605Z,25.30
2018-06-29T14:25:53.574Z,25.31
2018-06-29T14:28:23.491Z,25.31
2018-06-29T14:30:53.471Z,25.33
2018-06-29T14:33:23.771Z,25.35
2018-06-29T14:35:54.325Z,25.36
2018-06-29T14:38:24.360Z,25.38
2018-06-29T14:40:54.357Z,25.40
2018-06-29T14:43:24.278Z,25.40
2018-06-29T14:45:54.082Z,25.40
2018-06-29T14:48:24.514Z,25.39
2018-06-29T14:50:54.632Z,25.38
2018-06-29T14:53:24.687Z,25.38
2018-06-29T14:55:54.759Z,25.37
2018-06-29T14:58:24.932Z,25.35
2018-06-29T15:00:54.722Z,25.35
2018-06-29T15:03:24.484Z,25.35
2018-06-29T15:05:54.519Z,25.35
2018-06-29T15:08:25.236Z,25.35
2018-06-29T15:10:55.182Z,25.34
2018-06-29T15:13:25.181Z,25.32
2018-06-29T15:15:56.096Z,25.30
2018-06-29T15:18:26.435Z,25.28
2018-06-29T15:20:56.324Z,25.27
2018-06-29T15:23:26.547Z,25.26
2018-06-29T15:25:56.795Z,25.25
2018-06-29T15:28:26.901Z,25.24
2018-06-29T15:30:56.902Z,25.25
2018-06-29T15:33:26.957Z,25.24
2018-06-29T15:36:02.291Z,25.25
2018-06-29T15:38:32.207Z,25.25
2018-06-29T15:41:02.227Z,25.25
2018-06-29T15:43:32.138Z,25.25
2018-06-29T15:46:02.115Z,25.24
2018-06-29T15:48:31.960Z,25.23
2018-06-29T15:51:02.088Z,25.21
2018-06-29T15:53:31.960Z,25.20
2018-06-29T15:56:01.775Z,25.19
2018-06-29T15:58:32.882Z,25.19
2018-06-29T16:01:03.211Z,25.16
2018-06-29T16:03:33.235Z,25.15
2018-06-29T16:06:03.452Z,25.13
2018-06-29T16:08:33.900Z,25.11
2018-06-29T16:11:03.769Z,25.07
2018-06-29T16:13:34.070Z,25.05
2018-06-29T16:16:10.738Z,25.01
2018-06-29T16:18:40.629Z,24.99
2018-06-29T16:21:10.881Z,24.98
2018-06-29T16:23:41.306Z,24.95
2018-06-29T16:26:12.266Z,24.93
2018-06-29T16:28:42.088Z,24.89
2018-06-29T16:31:12.020Z,24.88
2018-06-29T16:33:42.047Z,24.85
2018-06-29T16:36:11.974Z,24.81
2018-06-29T16:38:42.028Z,24.77
2018-06-29T16:41:11.700Z,24.74
2018-06-29T16:43:41.685Z,24.72
2018-06-29T16:46:11.499Z,24.72
2018-06-29T16:48:41.312Z,24.73
2018-06-29T16:51:11.037Z,24.75
2018-06-29T16:53:40.792Z,24.77
2018-06-29T16:56:10.539Z,24.75
2018-06-29T16:58:40.465Z,24.78
2018-06-29T17:01:10.342Z,24.78
2018-06-29T17:03:40.549Z,24.78
2018-06-29T17:06:10.258Z,24.79
2018-06-29T17:08:40.905Z,24.80
2018-06-29T17:11:11.073Z,24.83
2018-06-29T17:13:40.802Z,24.87
2018-06-29T17:16:10.721Z,24.89
2018-06-29T17:18:41.213Z,24.92
2018-06-29T17:21:11.044Z,24.94
2018-06-29T17:23:40.769Z,24.96
2018-06-29T17:26:10.873Z,24.97
2018-06-29T17:28:40.723Z,24.97
2018-06-29T17:31:10.805Z,24.97
2018-06-29T17:33:41.014Z,24.96
2018-06-29T17:36:11.010Z,24.97
2018-06-29T17:38:41.164Z,24.98
2018-06-29T17:41:10.971Z,24.99
2018-06-29T17:43:40.686Z,25.00
2018-06-29T17:46:10.549Z,24.99
2018-06-29T17:48:40.196Z,24.97
2018-06-29T17:51:10.212Z,24.95
2018-06-29T17:53:40.304Z,24.94
2018-06-29T17:56:10.326Z,24.92
2018-06-29T17:58:40.068Z,24.91
2018-06-29T18:01:10.080Z,24.88
2018-06-29T18:03:40.383Z,24.86
2018-06-29T18:06:10.227Z,24.84
2018-06-29T18:08:40.199Z,24.81
2018-06-29T18:11:10.163Z,24.78
2018-06-29T18:13:39.971Z,24.75
2018-06-29T18:16:10.083Z,24.74
2018-06-29T18:18:40.338Z,24.71
2018-06-29T18:21:10.436Z,24.68
2018-06-29T18:23:40.246Z,24.63
2018-06-29T18:26:10.225Z,24.58
2018-06-29T18:28:40.078Z,24.51
2018-06-29T18:31:10.099Z,24.43
2018-06-29T18:33:40.394Z,24.36
2018-06-29T18:36:10.357Z,24.29
2018-06-29T18:38:40.398Z,24.23
2018-06-29T18:41:10.755Z,24.19
2018-06-29T18:43:40.768Z,24.13
2018-06-29T18:46:10.947Z,24.10
2018-06-29T18:48:41.551Z,24.07
2018-06-29T18:51:12.315Z,24.02
2018-06-29T18:53:42.517Z,23.99
2018-06-29T18:56:12.602Z,23.95
2018-06-29T18:58:42.445Z,23.93
2018-06-29T19:01:12.418Z,23.89
2018-06-29T19:03:42.734Z,23.86
2018-06-29T19:06:12.615Z,23.84
2018-06-29T19:08:42.757Z,23.82
2018-06-29T19:11:12.903Z,23.78
2018-06-29T19:13:43.395Z,23.74
2018-06-29T19:16:13.534Z,23.69
2018-06-29T19:18:43.395Z,23.66
2018-06-29T19:21:13.819Z,23.63
2018-06-29T19:23:43.817Z,23.60
2018-06-29T19:26:13.856Z,23.56
2018-06-29T19:28:44.007Z,23.52
2018-06-29T19:31:14.612Z,23.47
2018-06-29T19:33:44.796Z,23.42
2018-06-29T19:36:15.093Z,23.38
2018-06-29T19:38:45.139Z,23.34
2018-06-29T19:41:15.236Z,23.29
2018-06-29T19:43:45.593Z,23.24
2018-06-29T19:46:22.042Z,23.18
2018-06-29T19:48:51.998Z,23.16
2018-06-29T19:51:21.805Z,23.14
2018-06-29T19:53:51.618Z,23.13
2018-06-29T19:56:21.739Z,23.12
2018-06-29T19:58:51.727Z,23.10
2018-06-29T20:01:21.643Z,23.09
2018-06-29T20:03:51.877Z,23.07
2018-06-29T20:06:21.811Z,23.05
2018-06-29T20:08:51.589Z,23.04
2018-06-29T20:11:21.768Z,23.02
2018-06-29T20:13:51.933Z,23.01
2018-06-29T20:16:22.051Z,22.99
2018-06-29T20:18:52.977Z,22.98
2018-06-29T20:21:23.553Z,22.96
2018-06-29T20:23:54.083Z,22.94
2018-06-29T20:26:24.459Z,22.94
2018-06-29T20:28:54.785Z,22.94
2018-06-29T20:31:25.349Z,22.93
2018-06-29T20:33:55.498Z,22.91
2018-06-29T20:36:25.801Z,22.89
2018-06-29T20:38:56.133Z,22.87
2018-06-29T20:41:26.603Z,22.86
2018-06-29T20:43:56.710Z,22.85
2018-06-29T20:46:26.772Z,22.84
2018-06-29T20:48:56.975Z,22.82
2018-06-29T20:51:26.852Z,22.81
2018-06-29T20:53:57.495Z,22.77
2018-06-29T20:56:27.406Z,22.73
2018-06-29T20:58:57.679Z,22.71
2018-06-29T21:01:27.723Z,22.68
2018-06-29T21:03:58.108Z,22.65
2018-06-29T21:06:28.297Z,22.63
2018-06-29T21:08:58.188Z,22.58
2018-06-29T21:11:27.908Z,22.55
2018-06-29T21:13:57.806Z,22.54
2018-06-29T21:16:28.337Z,22.51
2018-06-29T21:18:58.964Z,22.50
2018-06-29T21:21:28.705Z,22.48
2018-06-29T21:24:04.971Z,22.46
2018-06-29T21:26:35.205Z,22.44
2018-06-29T21:29:05.262Z,22.44
2018-06-29T21:31:35.307Z,22.44
2018-06-29T21:34:05.480Z,22.43
2018-06-29T21:36:35.591Z,22.42
2018-06-29T21:39:08.391Z,22.43
2018-06-29T21:41:45.139Z,22.42
2018-06-29T21:44:15.063Z,22.42
2018-06-29T21:46:44.950Z,22.42
2018-06-29T21:49:14.891Z,22.42
2018-06-29T21:51:44.584Z,22.41
2018-06-29T21:54:14.640Z,22.42
2018-06-29T21:56:44.729Z,22.41
2018-06-29T21:59:14.577Z,22.40
2018-06-29T22:01:44.556Z,22.42
2018-06-29T22:04:14.775Z,22.44
2018-06-29T22:06:44.738Z,22.46
2018-06-29T22:09:14.656Z,22.46
2018-06-29T22:11:44.449Z,22.49
2018-06-29T22:14:14.483Z,22.51
2018-06-29T22:16:44.463Z,22.53
2018-06-29T22:19:15.052Z,22.55
2018-06-29T22:21:45.087Z,22.56
2018-06-29T22:24:15.036Z,22.58
2018-06-29T22:26:44.963Z,22.60
2018-06-29T22:29:15.258Z,22.59
2018-06-29T22:31:45.300Z,22.59
2018-06-29T22:34:15.129Z,22.60
2018-06-29T22:36:45.061Z,22.60
2018-06-29T22:39:15.578Z,22.58
2018-06-29T22:41:45.361Z,22.58
2018-06-29T22:44:15.366Z,22.58
2018-06-29T22:46:45.378Z,22.58
2018-06-29T22:49:15.319Z,22.56
2018-06-29T22:51:45.327Z,22.54
2018-06-29T22:54:15.392Z,22.50
2018-06-29T22:56:45.144Z,22.47
2018-06-29T22:59:15.087Z,22.43
2018-06-29T23:01:44.929Z,22.39
2018-06-29T23:04:16.023Z,22.35
2018-06-29T23:06:46.224Z,22.32
2018-06-29T23:09:16.401Z,22.28
2018-06-29T23:11:46.602Z,22.27
2018-06-29T23:14:17.024Z,22.23
2018-06-29T23:16:47.428Z,22.20
2018-06-29T23:19:17.531Z,22.16
2018-06-29T23:21:47.560Z,22.14
2018-06-29T23:24:17.622Z,22.10
2018-06-29T23:26:47.962Z,22.08
2018-06-29T23:29:18.066Z,22.07
2018-06-29T23:31:48.182Z,22.07
2018-06-29T23:34:18.299Z,22.05
2018-06-29T23:36:48.451Z,22.04
2018-06-29T23:39:18.410Z,22.04
2018-06-29T23:41:48.408Z,22.03
2018-06-29T23:44:18.616Z,22.03
2018-06-29T23:46:48.762Z,22.03
2018-06-29T23:49:19.001Z,22.01
2018-06-29T23:51:49.322Z,22.01
2018-06-29T23:54:19.860Z,22.01
2018-06-29T23:56:50.123Z,22.00
2018-06-29T23:59:21.191Z,21.98
